sensor_id;sensor_type;location;lat;lon;timestamp;temperature;humidity
25914;DHT22;13718;50.922;5.346;2024-03-06T00:01:57;7.40;99.90
25914;DHT22;13718;50.922;5.346;2024-03-06T00:04:22;7.30;99.90
25914;DHT22;13718;50.922;5.346;2024-03-06T00:06:48;7.20;99.90
25914;DHT22;13718;50.922;5.346;2024-03-06T00:09:14;7.10;99.90
25914;DHT22;13718;50.922;5.346;2024-03-06T00:11:39;7.20;99.90
25914;DHT22;13718;50.922;5.346;2024-03-06T00:14:05;7.30;99.90
25914;DHT22;13718;50.922;5.346;2024-03-06T00:16:31;7.20;99.90
25914;DHT22;13718;50.922;5.346;2024-03-06T00:18:56;7.10;99.90
25914;DHT22;13718;50.922;5.346;2024-03-06T00:21:22;7.00;99.90
25914;DHT22;13718;50.922;5.346;2024-03-06T00:23:47;6.80;99.90
25914;DHT22;13718;50.922;5.346;2024-03-06T00:26:13;6.90;99.90
25914;DHT22;13718;50.922;5.346;2024-03-06T00:28:39;7.00;99.90
25914;DHT22;13718;50.922;5.346;2024-03-06T00:31:07;6.90;99.90
25914;DHT22;13718;50.922;5.346;2024-03-06T00:33:33;6.80;99.90
25914;DHT22;13718;50.922;5.346;2024-03-06T00:35:58;6.70;99.90
25914;DHT22;13718;50.922;5.346;2024-03-06T00:38:24;6.60;99.90
25914;DHT22;13718;50.922;5.346;2024-03-06T00:40:49;6.50;99.90
25914;DHT22;13718;50.922;5.346;2024-03-06T00:43:15;6.40;99.90
25914;DHT22;13718;50.922;5.346;2024-03-06T00:45:40;6.40;99.90
25914;DHT22;13718;50.922;5.346;2024-03-06T00:48:06;6.30;99.90
25914;DHT22;13718;50.922;5.346;2024-03-06T00:50:31;6.30;99.90
25914;DHT22;13718;50.922;5.346;2024-03-06T00:52:57;6.30;99.90
25914;DHT22;13718;50.922;5.346;2024-03-06T00:55:23;6.20;99.90
25914;DHT22;13718;50.922;5.346;2024-03-06T00:57:48;6.20;99.90
25914;DHT22;13718;50.922;5.346;2024-03-06T01:00:14;6.20;99.90
25914;DHT22;13718;50.922;5.346;2024-03-06T01:02:41;6.10;99.90
25914;DHT22;13718;50.922;5.346;2024-03-06T01:05:06;6.10;99.90
25914;DHT22;13718;50.922;5.346;2024-03-06T01:07:32;6.00;99.90
25914;DHT22;13718;50.922;5.346;2024-03-06T01:09:58;6.00;99.90
25914;DHT22;13718;50.922;5.346;2024-03-06T01:12:24;6.00;99.90
25914;DHT22;13718;50.922;5.346;2024-03-06T01:14:50;6.10;99.90
25914;DHT22;13718;50.922;5.346;2024-03-06T01:17:15;6.10;99.90
25914;DHT22;13718;50.922;5.346;2024-03-06T01:19:41;6.00;99.90
25914;DHT22;13718;50.922;5.346;2024-03-06T01:22:09;5.90;99.90
25914;DHT22;13718;50.922;5.346;2024-03-06T01:24:34;5.90;99.90
25914;DHT22;13718;50.922;5.346;2024-03-06T01:27:00;5.90;99.90
25914;DHT22;13718;50.922;5.346;2024-03-06T01:29:30;5.90;99.90
25914;DHT22;13718;50.922;5.346;2024-03-06T01:31:56;5.90;99.90
25914;DHT22;13718;50.922;5.346;2024-03-06T01:34:21;5.70;99.90
25914;DHT22;13718;50.922;5.346;2024-03-06T01:36:50;5.60;99.90
25914;DHT22;13718;50.922;5.346;2024-03-06T01:39:16;5.80;99.90
25914;DHT22;13718;50.922;5.346;2024-03-06T01:41:48;5.80;99.90
25914;DHT22;13718;50.922;5.346;2024-03-06T01:44:14;5.70;99.90
25914;DHT22;13718;50.922;5.346;2024-03-06T01:46:40;5.70;99.90
25914;DHT22;13718;50.922;5.346;2024-03-06T01:49:06;5.50;99.90
25914;DHT22;13718;50.922;5.346;2024-03-06T01:51:32;5.40;99.90
25914;DHT22;13718;50.922;5.346;2024-03-06T01:53:58;5.30;99.90
25914;DHT22;13718;50.922;5.346;2024-03-06T01:56:24;5.30;99.90
25914;DHT22;13718;50.922;5.346;2024-03-06T01:58:50;5.40;99.90
25914;DHT22;13718;50.922;5.346;2024-03-06T02:01:16;5.30;99.90
25914;DHT22;13718;50.922;5.346;2024-03-06T02:03:42;5.30;99.90
25914;DHT22;13718;50.922;5.346;2024-03-06T02:06:08;5.40;99.90
25914;DHT22;13718;50.922;5.346;2024-03-06T02:08:35;5.70;99.90
25914;DHT22;13718;50.922;5.346;2024-03-06T02:11:00;5.80;99.90
25914;DHT22;13718;50.922;5.346;2024-03-06T02:13:29;5.90;99.90
25914;DHT22;13718;50.922;5.346;2024-03-06T02:15:54;5.80;99.90
25914;DHT22;13718;50.922;5.346;2024-03-06T02:18:20;6.00;99.90
25914;DHT22;13718;50.922;5.346;2024-03-06T02:20:46;6.10;99.90
25914;DHT22;13718;50.922;5.346;2024-03-06T02:23:12;6.10;99.90
25914;DHT22;13718;50.922;5.346;2024-03-06T02:25:40;6.30;99.90
25914;DHT22;13718;50.922;5.346;2024-03-06T02:28:05;6.30;99.90
25914;DHT22;13718;50.922;5.346;2024-03-06T02:30:31;6.30;99.90
25914;DHT22;13718;50.922;5.346;2024-03-06T02:33:04;6.20;99.90
25914;DHT22;13718;50.922;5.346;2024-03-06T02:35:31;6.20;99.90
25914;DHT22;13718;50.922;5.346;2024-03-06T02:37:56;6.00;99.90
25914;DHT22;13718;50.922;5.346;2024-03-06T02:40:22;5.80;99.90
25914;DHT22;13718;50.922;5.346;2024-03-06T02:42:47;5.70;99.90
25914;DHT22;13718;50.922;5.346;2024-03-06T02:45:13;5.70;99.90
25914;DHT22;13718;50.922;5.346;2024-03-06T02:47:39;5.70;99.90
25914;DHT22;13718;50.922;5.346;2024-03-06T02:50:05;5.80;99.90
25914;DHT22;13718;50.922;5.346;2024-03-06T02:52:30;5.60;99.90
25914;DHT22;13718;50.922;5.346;2024-03-06T02:54:56;5.50;99.90
25914;DHT22;13718;50.922;5.346;2024-03-06T02:57:21;5.40;99.90
25914;DHT22;13718;50.922;5.346;2024-03-06T02:59:47;5.20;99.90
25914;DHT22;13718;50.922;5.346;2024-03-06T03:02:12;5.20;99.90
25914;DHT22;13718;50.922;5.346;2024-03-06T03:04:38;5.30;99.90
25914;DHT22;13718;50.922;5.346;2024-03-06T03:07:03;5.40;99.90
25914;DHT22;13718;50.922;5.346;2024-03-06T03:09:30;5.40;99.90
25914;DHT22;13718;50.922;5.346;2024-03-06T03:11:56;5.30;99.90
25914;DHT22;13718;50.922;5.346;2024-03-06T03:14:22;5.30;99.90
25914;DHT22;13718;50.922;5.346;2024-03-06T03:16:48;5.20;99.90
25914;DHT22;13718;50.922;5.346;2024-03-06T03:19:13;5.10;99.90
25914;DHT22;13718;50.922;5.346;2024-03-06T03:21:42;5.00;99.90
25914;DHT22;13718;50.922;5.346;2024-03-06T03:24:07;5.00;99.90
25914;DHT22;13718;50.922;5.346;2024-03-06T03:26:33;5.00;99.90
25914;DHT22;13718;50.922;5.346;2024-03-06T03:28:58;5.00;99.90
25914;DHT22;13718;50.922;5.346;2024-03-06T03:31:24;4.90;99.90
25914;DHT22;13718;50.922;5.346;2024-03-06T03:33:50;4.70;99.90
25914;DHT22;13718;50.922;5.346;2024-03-06T03:36:15;4.60;99.90
25914;DHT22;13718;50.922;5.346;2024-03-06T03:38:41;4.50;99.90
25914;DHT22;13718;50.922;5.346;2024-03-06T03:41:07;4.50;99.90
25914;DHT22;13718;50.922;5.346;2024-03-06T03:43:32;4.50;99.90
25914;DHT22;13718;50.922;5.346;2024-03-06T03:45:58;4.40;99.90
25914;DHT22;13718;50.922;5.346;2024-03-06T03:48:24;4.30;99.90
25914;DHT22;13718;50.922;5.346;2024-03-06T03:50:50;4.30;99.90
25914;DHT22;13718;50.922;5.346;2024-03-06T03:53:15;4.30;99.90
25914;DHT22;13718;50.922;5.346;2024-03-06T03:55:41;4.30;99.90
25914;DHT22;13718;50.922;5.346;2024-03-06T03:58:06;4.20;99.90
25914;DHT22;13718;50.922;5.346;2024-03-06T04:00:32;4.20;99.90
25914;DHT22;13718;50.922;5.346;2024-03-06T04:02:58;4.10;99.90
25914;DHT22;13718;50.922;5.346;2024-03-06T04:05:24;4.00;99.90
25914;DHT22;13718;50.922;5.346;2024-03-06T04:07:49;4.00;99.90
25914;DHT22;13718;50.922;5.346;2024-03-06T04:10:16;4.00;99.90
25914;DHT22;13718;50.922;5.346;2024-03-06T04:12:41;3.90;99.90
25914;DHT22;13718;50.922;5.346;2024-03-06T04:15:07;3.90;99.90
25914;DHT22;13718;50.922;5.346;2024-03-06T04:17:33;3.90;99.90
25914;DHT22;13718;50.922;5.346;2024-03-06T04:19:59;3.80;99.90
25914;DHT22;13718;50.922;5.346;2024-03-06T04:22:25;3.90;99.90
25914;DHT22;13718;50.922;5.346;2024-03-06T04:24:51;3.90;99.90
25914;DHT22;13718;50.922;5.346;2024-03-06T04:27:16;3.90;99.90
25914;DHT22;13718;50.922;5.346;2024-03-06T04:29:42;3.90;99.90
25914;DHT22;13718;50.922;5.346;2024-03-06T04:32:08;4.00;99.90
25914;DHT22;13718;50.922;5.346;2024-03-06T04:34:33;3.90;99.90
25914;DHT22;13718;50.922;5.346;2024-03-06T04:37:00;3.90;99.90
25914;DHT22;13718;50.922;5.346;2024-03-06T04:39:26;3.80;99.90
25914;DHT22;13718;50.922;5.346;2024-03-06T04:41:51;3.70;99.90
25914;DHT22;13718;50.922;5.346;2024-03-06T04:44:17;3.70;99.90
25914;DHT22;13718;50.922;5.346;2024-03-06T04:46:42;3.70;99.90
25914;DHT22;13718;50.922;5.346;2024-03-06T04:49:08;3.60;99.90
25914;DHT22;13718;50.922;5.346;2024-03-06T04:51:33;3.60;99.90
25914;DHT22;13718;50.922;5.346;2024-03-06T04:53:59;3.60;99.90
25914;DHT22;13718;50.922;5.346;2024-03-06T04:56:24;3.60;99.90
25914;DHT22;13718;50.922;5.346;2024-03-06T04:58:50;3.60;99.90
25914;DHT22;13718;50.922;5.346;2024-03-06T05:01:17;3.50;99.90
25914;DHT22;13718;50.922;5.346;2024-03-06T05:03:43;3.50;99.90
25914;DHT22;13718;50.922;5.346;2024-03-06T05:06:08;3.40;99.90
25914;DHT22;13718;50.922;5.346;2024-03-06T05:08:34;3.40;99.90
25914;DHT22;13718;50.922;5.346;2024-03-06T05:11:02;3.30;99.90
25914;DHT22;13718;50.922;5.346;2024-03-06T05:13:28;3.20;99.90
25914;DHT22;13718;50.922;5.346;2024-03-06T05:15:53;3.20;99.90
25914;DHT22;13718;50.922;5.346;2024-03-06T05:18:20;3.20;99.90
25914;DHT22;13718;50.922;5.346;2024-03-06T05:20:46;3.20;99.90
25914;DHT22;13718;50.922;5.346;2024-03-06T05:23:11;3.20;99.90
25914;DHT22;13718;50.922;5.346;2024-03-06T05:25:38;3.20;99.90
25914;DHT22;13718;50.922;5.346;2024-03-06T05:28:04;3.30;99.90
25914;DHT22;13718;50.922;5.346;2024-03-06T05:30:29;3.30;99.90
25914;DHT22;13718;50.922;5.346;2024-03-06T05:32:55;3.30;99.90
25914;DHT22;13718;50.922;5.346;2024-03-06T05:35:21;3.30;99.90
25914;DHT22;13718;50.922;5.346;2024-03-06T05:37:46;3.40;99.90
25914;DHT22;13718;50.922;5.346;2024-03-06T05:40:12;3.30;99.90
25914;DHT22;13718;50.922;5.346;2024-03-06T05:42:38;3.20;99.90
25914;DHT22;13718;50.922;5.346;2024-03-06T05:45:03;3.10;99.90
25914;DHT22;13718;50.922;5.346;2024-03-06T05:47:36;3.10;99.90
25914;DHT22;13718;50.922;5.346;2024-03-06T05:50:01;3.10;99.90
25914;DHT22;13718;50.922;5.346;2024-03-06T05:52:32;3.10;99.90
25914;DHT22;13718;50.922;5.346;2024-03-06T05:54:59;3.20;99.90
25914;DHT22;13718;50.922;5.346;2024-03-06T05:57:24;3.20;99.90
25914;DHT22;13718;50.922;5.346;2024-03-06T05:59:50;3.30;99.90
25914;DHT22;13718;50.922;5.346;2024-03-06T06:02:15;3.20;99.90
25914;DHT22;13718;50.922;5.346;2024-03-06T06:04:47;3.10;99.90
25914;DHT22;13718;50.922;5.346;2024-03-06T06:07:13;3.10;99.90
25914;DHT22;13718;50.922;5.346;2024-03-06T06:09:38;3.20;99.90
25914;DHT22;13718;50.922;5.346;2024-03-06T06:12:04;3.20;99.90
25914;DHT22;13718;50.922;5.346;2024-03-06T06:14:29;3.20;99.90
25914;DHT22;13718;50.922;5.346;2024-03-06T06:16:58;3.20;99.90
25914;DHT22;13718;50.922;5.346;2024-03-06T06:19:23;3.20;99.90
25914;DHT22;13718;50.922;5.346;2024-03-06T06:21:50;3.10;99.90
25914;DHT22;13718;50.922;5.346;2024-03-06T06:24:16;3.10;99.90
25914;DHT22;13718;50.922;5.346;2024-03-06T06:26:42;3.10;99.90
25914;DHT22;13718;50.922;5.346;2024-03-06T06:29:07;3.10;99.90
25914;DHT22;13718;50.922;5.346;2024-03-06T06:31:33;3.10;99.90
25914;DHT22;13718;50.922;5.346;2024-03-06T06:33:59;3.20;99.90
25914;DHT22;13718;50.922;5.346;2024-03-06T06:36:24;3.30;99.90
25914;DHT22;13718;50.922;5.346;2024-03-06T06:38:50;3.40;99.90
25914;DHT22;13718;50.922;5.346;2024-03-06T06:41:16;3.40;99.90
25914;DHT22;13718;50.922;5.346;2024-03-06T06:43:42;3.40;99.90
25914;DHT22;13718;50.922;5.346;2024-03-06T06:46:08;3.30;99.90
25914;DHT22;13718;50.922;5.346;2024-03-06T06:48:33;3.30;99.90
25914;DHT22;13718;50.922;5.346;2024-03-06T06:50:59;3.30;99.90
25914;DHT22;13718;50.922;5.346;2024-03-06T06:53:26;3.40;99.90
25914;DHT22;13718;50.922;5.346;2024-03-06T06:55:51;3.40;99.90
25914;DHT22;13718;50.922;5.346;2024-03-06T06:58:16;3.50;99.90
25914;DHT22;13718;50.922;5.346;2024-03-06T07:00:42;3.50;99.90
25914;DHT22;13718;50.922;5.346;2024-03-06T07:03:08;3.50;99.90
25914;DHT22;13718;50.922;5.346;2024-03-06T07:05:33;3.60;99.90
25914;DHT22;13718;50.922;5.346;2024-03-06T07:07:59;3.80;99.90
25914;DHT22;13718;50.922;5.346;2024-03-06T07:10:24;3.90;99.90
25914;DHT22;13718;50.922;5.346;2024-03-06T07:12:50;4.20;99.90
25914;DHT22;13718;50.922;5.346;2024-03-06T07:15:15;4.50;99.90
25914;DHT22;13718;50.922;5.346;2024-03-06T07:17:41;4.80;99.90
25914;DHT22;13718;50.922;5.346;2024-03-06T07:20:07;5.20;99.90
25914;DHT22;13718;50.922;5.346;2024-03-06T07:22:33;5.70;99.90
25914;DHT22;13718;50.922;5.346;2024-03-06T07:24:59;6.50;99.90
25914;DHT22;13718;50.922;5.346;2024-03-06T07:27:26;7.20;99.90
25914;DHT22;13718;50.922;5.346;2024-03-06T07:29:51;7.90;99.90
25914;DHT22;13718;50.922;5.346;2024-03-06T07:32:17;8.40;99.90
25914;DHT22;13718;50.922;5.346;2024-03-06T07:34:42;8.70;99.90
25914;DHT22;13718;50.922;5.346;2024-03-06T07:37:08;9.10;99.90
25914;DHT22;13718;50.922;5.346;2024-03-06T07:39:33;9.50;99.90
25914;DHT22;13718;50.922;5.346;2024-03-06T07:42:00;9.90;99.90
25914;DHT22;13718;50.922;5.346;2024-03-06T07:44:25;10.40;99.90
25914;DHT22;13718;50.922;5.346;2024-03-06T07:46:51;11.10;99.90
25914;DHT22;13718;50.922;5.346;2024-03-06T07:49:18;12.00;99.90
25914;DHT22;13718;50.922;5.346;2024-03-06T07:51:44;12.60;99.90
25914;DHT22;13718;50.922;5.346;2024-03-06T07:54:09;13.10;99.90
25914;DHT22;13718;50.922;5.346;2024-03-06T07:56:35;13.40;99.90
25914;DHT22;13718;50.922;5.346;2024-03-06T07:59:00;13.70;99.90
25914;DHT22;13718;50.922;5.346;2024-03-06T08:01:26;14.10;99.90
25914;DHT22;13718;50.922;5.346;2024-03-06T08:03:54;14.70;99.90
25914;DHT22;13718;50.922;5.346;2024-03-06T08:06:20;15.10;99.90
25914;DHT22;13718;50.922;5.346;2024-03-06T08:08:46;15.60;99.90
25914;DHT22;13718;50.922;5.346;2024-03-06T08:11:12;16.30;99.90
25914;DHT22;13718;50.922;5.346;2024-03-06T08:13:38;16.70;99.90
25914;DHT22;13718;50.922;5.346;2024-03-06T08:16:07;17.20;99.90
25914;DHT22;13718;50.922;5.346;2024-03-06T08:18:33;17.70;99.90
25914;DHT22;13718;50.922;5.346;2024-03-06T08:21:00;18.20;99.90
25914;DHT22;13718;50.922;5.346;2024-03-06T08:23:25;18.60;99.90
25914;DHT22;13718;50.922;5.346;2024-03-06T08:25:51;19.00;99.90
25914;DHT22;13718;50.922;5.346;2024-03-06T08:28:18;19.30;99.90
25914;DHT22;13718;50.922;5.346;2024-03-06T08:30:43;19.40;99.40
25914;DHT22;13718;50.922;5.346;2024-03-06T08:33:09;19.70;98.60
25914;DHT22;13718;50.922;5.346;2024-03-06T08:35:37;19.90;98.20
25914;DHT22;13718;50.922;5.346;2024-03-06T08:38:03;20.30;97.60
25914;DHT22;13718;50.922;5.346;2024-03-06T08:40:29;20.60;96.50
25914;DHT22;13718;50.922;5.346;2024-03-06T08:42:55;20.10;95.80
25914;DHT22;13718;50.922;5.346;2024-03-06T08:45:21;18.40;97.00
25914;DHT22;13718;50.922;5.346;2024-03-06T08:47:48;16.30;99.20
25914;DHT22;13718;50.922;5.346;2024-03-06T08:50:14;14.60;99.90
25914;DHT22;13718;50.922;5.346;2024-03-06T08:52:39;13.70;99.90
25914;DHT22;13718;50.922;5.346;2024-03-06T08:55:06;13.10;99.90
25914;DHT22;13718;50.922;5.346;2024-03-06T08:57:36;12.70;99.90
25914;DHT22;13718;50.922;5.346;2024-03-06T09:00:02;12.00;99.90
25914;DHT22;13718;50.922;5.346;2024-03-06T09:02:27;11.80;99.90
25914;DHT22;13718;50.922;5.346;2024-03-06T09:04:53;11.50;99.90
25914;DHT22;13718;50.922;5.346;2024-03-06T09:07:19;11.30;99.90
25914;DHT22;13718;50.922;5.346;2024-03-06T09:09:45;11.10;99.90
25914;DHT22;13718;50.922;5.346;2024-03-06T09:12:11;11.10;99.90
25914;DHT22;13718;50.922;5.346;2024-03-06T09:14:37;11.10;99.90
25914;DHT22;13718;50.922;5.346;2024-03-06T09:17:02;11.00;99.90
25914;DHT22;13718;50.922;5.346;2024-03-06T09:19:28;10.60;99.90
25914;DHT22;13718;50.922;5.346;2024-03-06T09:21:54;10.50;99.90
25914;DHT22;13718;50.922;5.346;2024-03-06T09:24:20;10.40;99.90
25914;DHT22;13718;50.922;5.346;2024-03-06T09:26:47;10.30;99.90
25914;DHT22;13718;50.922;5.346;2024-03-06T09:29:13;10.30;99.90
25914;DHT22;13718;50.922;5.346;2024-03-06T09:31:38;10.20;99.90
25914;DHT22;13718;50.922;5.346;2024-03-06T09:34:04;10.20;99.90
25914;DHT22;13718;50.922;5.346;2024-03-06T09:36:29;10.30;99.90
25914;DHT22;13718;50.922;5.346;2024-03-06T09:38:54;10.30;99.90
25914;DHT22;13718;50.922;5.346;2024-03-06T09:41:21;10.50;99.90
25914;DHT22;13718;50.922;5.346;2024-03-06T09:43:47;10.80;99.90
25914;DHT22;13718;50.922;5.346;2024-03-06T09:46:12;10.70;99.90
25914;DHT22;13718;50.922;5.346;2024-03-06T09:48:40;10.60;99.90
25914;DHT22;13718;50.922;5.346;2024-03-06T09:51:10;10.80;99.90
25914;DHT22;13718;50.922;5.346;2024-03-06T09:53:38;10.90;99.90
25914;DHT22;13718;50.922;5.346;2024-03-06T09:56:04;11.00;99.90
25914;DHT22;13718;50.922;5.346;2024-03-06T09:58:31;11.00;99.90
25914;DHT22;13718;50.922;5.346;2024-03-06T10:00:57;10.90;99.90
25914;DHT22;13718;50.922;5.346;2024-03-06T10:03:23;10.90;99.90
25914;DHT22;13718;50.922;5.346;2024-03-06T10:05:49;11.00;99.90
25914;DHT22;13718;50.922;5.346;2024-03-06T10:08:14;10.90;99.90
25914;DHT22;13718;50.922;5.346;2024-03-06T10:10:42;11.20;99.90
25914;DHT22;13718;50.922;5.346;2024-03-06T10:13:08;11.10;99.90
25914;DHT22;13718;50.922;5.346;2024-03-06T10:15:33;11.00;99.90
25914;DHT22;13718;50.922;5.346;2024-03-06T10:18:11;11.00;99.90
25914;DHT22;13718;50.922;5.346;2024-03-06T10:20:37;11.10;99.90
25914;DHT22;13718;50.922;5.346;2024-03-06T10:23:03;11.10;99.90
25914;DHT22;13718;50.922;5.346;2024-03-06T10:25:29;11.10;99.90
25914;DHT22;13718;50.922;5.346;2024-03-06T10:28:13;11.10;99.90
25914;DHT22;13718;50.922;5.346;2024-03-06T10:30:39;11.10;99.90
25914;DHT22;13718;50.922;5.346;2024-03-06T10:35:36;11.10;99.90
25914;DHT22;13718;50.922;5.346;2024-03-06T10:38:05;11.10;99.90
25914;DHT22;13718;50.922;5.346;2024-03-06T10:40:32;11.30;99.90
25914;DHT22;13718;50.922;5.346;2024-03-06T10:42:58;11.70;99.90
25914;DHT22;13718;50.922;5.346;2024-03-06T10:45:26;12.00;99.90
25914;DHT22;13718;50.922;5.346;2024-03-06T10:47:55;12.10;99.90
25914;DHT22;13718;50.922;5.346;2024-03-06T10:50:21;12.20;99.90
25914;DHT22;13718;50.922;5.346;2024-03-06T10:52:47;12.20;99.90
25914;DHT22;13718;50.922;5.346;2024-03-06T10:55:15;12.40;99.90
25914;DHT22;13718;50.922;5.346;2024-03-06T10:57:40;12.30;99.90
25914;DHT22;13718;50.922;5.346;2024-03-06T11:00:07;12.10;99.90
25914;DHT22;13718;50.922;5.346;2024-03-06T11:02:33;11.90;99.90
25914;DHT22;13718;50.922;5.346;2024-03-06T11:05:01;11.70;99.90
25914;DHT22;13718;50.922;5.346;2024-03-06T11:07:30;11.50;99.90
25914;DHT22;13718;50.922;5.346;2024-03-06T11:09:58;11.50;99.90
25914;DHT22;13718;50.922;5.346;2024-03-06T11:12:36;11.70;99.90
25914;DHT22;13718;50.922;5.346;2024-03-06T11:15:23;12.00;99.90
25914;DHT22;13718;50.922;5.346;2024-03-06T11:17:49;12.40;99.90
25914;DHT22;13718;50.922;5.346;2024-03-06T11:20:18;12.30;99.90
25914;DHT22;13718;50.922;5.346;2024-03-06T11:28:24;12.40;99.90
25914;DHT22;13718;50.922;5.346;2024-03-06T11:30:55;12.40;99.90
25914;DHT22;13718;50.922;5.346;2024-03-06T11:33:22;12.50;99.90
25914;DHT22;13718;50.922;5.346;2024-03-06T11:38:33;12.90;99.90
25914;DHT22;13718;50.922;5.346;2024-03-06T11:41:04;13.30;99.90
25914;DHT22;13718;50.922;5.346;2024-03-06T11:43:29;13.70;99.90
25914;DHT22;13718;50.922;5.346;2024-03-06T11:46:07;14.00;99.90
25914;DHT22;13718;50.922;5.346;2024-03-06T11:48:33;14.40;99.90
25914;DHT22;13718;50.922;5.346;2024-03-06T11:50:59;14.60;99.90
25914;DHT22;13718;50.922;5.346;2024-03-06T11:53:30;14.70;99.90
25914;DHT22;13718;50.922;5.346;2024-03-06T11:55:57;14.90;99.90
25914;DHT22;13718;50.922;5.346;2024-03-06T11:58:23;14.90;99.90
25914;DHT22;13718;50.922;5.346;2024-03-06T12:00:49;14.90;99.90
25914;DHT22;13718;50.922;5.346;2024-03-06T12:03:15;15.10;99.90
25914;DHT22;13718;50.922;5.346;2024-03-06T12:05:40;15.10;99.90
25914;DHT22;13718;50.922;5.346;2024-03-06T12:08:06;15.30;99.90
25914;DHT22;13718;50.922;5.346;2024-03-06T12:10:36;15.10;99.90
25914;DHT22;13718;50.922;5.346;2024-03-06T12:13:02;15.00;99.90
25914;DHT22;13718;50.922;5.346;2024-03-06T12:15:28;15.00;99.90
25914;DHT22;13718;50.922;5.346;2024-03-06T12:17:54;14.80;99.90
25914;DHT22;13718;50.922;5.346;2024-03-06T12:20:19;14.60;99.90
25914;DHT22;13718;50.922;5.346;2024-03-06T12:22:47;14.50;99.90
25914;DHT22;13718;50.922;5.346;2024-03-06T12:25:20;14.30;99.90
25914;DHT22;13718;50.922;5.346;2024-03-06T12:27:49;14.60;99.90
25914;DHT22;13718;50.922;5.346;2024-03-06T12:30:18;14.70;99.90
25914;DHT22;13718;50.922;5.346;2024-03-06T12:33:05;14.40;99.90
25914;DHT22;13718;50.922;5.346;2024-03-06T12:35:30;14.20;99.90
25914;DHT22;13718;50.922;5.346;2024-03-06T12:37:55;14.10;99.90
25914;DHT22;13718;50.922;5.346;2024-03-06T12:40:21;14.10;99.90
25914;DHT22;13718;50.922;5.346;2024-03-06T12:42:47;14.30;99.90
25914;DHT22;13718;50.922;5.346;2024-03-06T12:45:12;14.60;99.90
25914;DHT22;13718;50.922;5.346;2024-03-06T12:47:41;14.70;99.90
25914;DHT22;13718;50.922;5.346;2024-03-06T12:50:07;14.50;99.90
25914;DHT22;13718;50.922;5.346;2024-03-06T12:52:42;14.60;99.90
25914;DHT22;13718;50.922;5.346;2024-03-06T12:55:11;14.60;99.90
25914;DHT22;13718;50.922;5.346;2024-03-06T12:57:36;14.60;99.90
25914;DHT22;13718;50.922;5.346;2024-03-06T13:00:02;14.70;99.90
25914;DHT22;13718;50.922;5.346;2024-03-06T13:02:28;14.80;99.90
25914;DHT22;13718;50.922;5.346;2024-03-06T13:04:53;15.00;99.90
25914;DHT22;13718;50.922;5.346;2024-03-06T13:07:19;15.10;99.90
25914;DHT22;13718;50.922;5.346;2024-03-06T13:09:45;15.20;99.90
25914;DHT22;13718;50.922;5.346;2024-03-06T13:12:10;15.20;99.90
25914;DHT22;13718;50.922;5.346;2024-03-06T13:14:36;15.30;99.90
25914;DHT22;13718;50.922;5.346;2024-03-06T13:17:01;15.60;99.90
25914;DHT22;13718;50.922;5.346;2024-03-06T13:19:27;15.50;99.90
25914;DHT22;13718;50.922;5.346;2024-03-06T13:21:53;15.40;99.90
25914;DHT22;13718;50.922;5.346;2024-03-06T13:24:19;15.50;99.90
25914;DHT22;13718;50.922;5.346;2024-03-06T13:26:47;15.70;99.40
25914;DHT22;13718;50.922;5.346;2024-03-06T13:29:13;15.80;99.10
25914;DHT22;13718;50.922;5.346;2024-03-06T13:31:39;15.50;99.40
25914;DHT22;13718;50.922;5.346;2024-03-06T13:34:04;15.30;99.90
25914;DHT22;13718;50.922;5.346;2024-03-06T13:36:29;15.20;99.90
25914;DHT22;13718;50.922;5.346;2024-03-06T13:38:58;15.40;99.80
25914;DHT22;13718;50.922;5.346;2024-03-06T13:41:24;15.60;99.80
25914;DHT22;13718;50.922;5.346;2024-03-06T13:43:49;15.60;99.50
25914;DHT22;13718;50.922;5.346;2024-03-06T13:46:15;15.60;99.20
25914;DHT22;13718;50.922;5.346;2024-03-06T13:48:40;15.50;98.40
25914;DHT22;13718;50.922;5.346;2024-03-06T13:51:06;15.40;98.60
25914;DHT22;13718;50.922;5.346;2024-03-06T13:53:31;15.40;98.50
25914;DHT22;13718;50.922;5.346;2024-03-06T13:55:57;15.70;97.40
25914;DHT22;13718;50.922;5.346;2024-03-06T13:58:23;15.60;96.80
25914;DHT22;13718;50.922;5.346;2024-03-06T14:00:48;15.10;97.30
25914;DHT22;13718;50.922;5.346;2024-03-06T14:03:14;14.90;97.80
25914;DHT22;13718;50.922;5.346;2024-03-06T14:05:39;14.80;98.70
25914;DHT22;13718;50.922;5.346;2024-03-06T14:08:05;14.90;98.10
25914;DHT22;13718;50.922;5.346;2024-03-06T14:10:30;14.70;97.90
25914;DHT22;13718;50.922;5.346;2024-03-06T14:13:00;14.80;97.30
25914;DHT22;13718;50.922;5.346;2024-03-06T14:15:26;14.60;97.20
25914;DHT22;13718;50.922;5.346;2024-03-06T14:17:55;14.50;97.50
25914;DHT22;13718;50.922;5.346;2024-03-06T14:20:20;14.30;98.10
25914;DHT22;13718;50.922;5.346;2024-03-06T14:22:46;14.30;99.30
25914;DHT22;13718;50.922;5.346;2024-03-06T14:25:12;14.30;98.80
25914;DHT22;13718;50.922;5.346;2024-03-06T14:27:38;14.30;98.00
25914;DHT22;13718;50.922;5.346;2024-03-06T14:30:04;14.20;98.10
25914;DHT22;13718;50.922;5.346;2024-03-06T14:32:29;14.20;98.20
25914;DHT22;13718;50.922;5.346;2024-03-06T14:34:55;14.00;98.20
25914;DHT22;13718;50.922;5.346;2024-03-06T14:37:20;13.70;98.50
25914;DHT22;13718;50.922;5.346;2024-03-06T14:39:46;13.60;98.70
25914;DHT22;13718;50.922;5.346;2024-03-06T14:42:12;13.80;98.90
25914;DHT22;13718;50.922;5.346;2024-03-06T14:44:37;14.00;98.00
25914;DHT22;13718;50.922;5.346;2024-03-06T14:47:03;14.10;98.10
25914;DHT22;13718;50.922;5.346;2024-03-06T14:49:28;14.20;97.90
25914;DHT22;13718;50.922;5.346;2024-03-06T14:51:54;14.10;98.00
25914;DHT22;13718;50.922;5.346;2024-03-06T14:54:21;13.90;97.90
25914;DHT22;13718;50.922;5.346;2024-03-06T14:56:48;14.00;96.80
25914;DHT22;13718;50.922;5.346;2024-03-06T14:59:13;13.90;97.10
25914;DHT22;13718;50.922;5.346;2024-03-06T15:01:39;13.90;97.00
25914;DHT22;13718;50.922;5.346;2024-03-06T15:04:05;13.90;97.50
25914;DHT22;13718;50.922;5.346;2024-03-06T15:06:30;13.80;97.10
25914;DHT22;13718;50.922;5.346;2024-03-06T15:08:56;13.50;97.40
25914;DHT22;13718;50.922;5.346;2024-03-06T15:11:21;13.40;98.10
25914;DHT22;13718;50.922;5.346;2024-03-06T15:13:50;13.30;98.10
25914;DHT22;13718;50.922;5.346;2024-03-06T15:16:16;13.40;98.40
25914;DHT22;13718;50.922;5.346;2024-03-06T15:18:41;13.30;98.40
25914;DHT22;13718;50.922;5.346;2024-03-06T15:21:07;13.20;98.50
25914;DHT22;13718;50.922;5.346;2024-03-06T15:23:34;13.50;98.20
25914;DHT22;13718;50.922;5.346;2024-03-06T15:25:59;13.50;98.00
25914;DHT22;13718;50.922;5.346;2024-03-06T15:28:25;13.20;98.30
25914;DHT22;13718;50.922;5.346;2024-03-06T15:30:50;13.10;98.60
25914;DHT22;13718;50.922;5.346;2024-03-06T15:33:16;13.30;98.00
25914;DHT22;13718;50.922;5.346;2024-03-06T15:35:41;13.20;97.80
25914;DHT22;13718;50.922;5.346;2024-03-06T15:38:08;13.20;98.20
25914;DHT22;13718;50.922;5.346;2024-03-06T15:40:35;13.10;97.90
25914;DHT22;13718;50.922;5.346;2024-03-06T15:43:01;12.90;97.70